createdAt,value
2018-08-23T00:01:08.271Z,70.95
2018-08-23T00:02:18.663Z,71.24
2018-08-23T00:03:28.818Z,71.11
2018-08-23T00:04:39.278Z,71.14
2018-08-23T00:05:49.121Z,71.2
2018-08-23T00:06:59.241Z,71.11
2018-08-23T00:08:09.109Z,71.3
2018-08-23T00:09:18.962Z,70.92
2018-08-23T00:10:29.125Z,70.92
2018-08-23T00:11:39.290Z,71.2
2018-08-23T00:12:49.392Z,70.92
2018-08-23T00:13:59.642Z,71.2
2018-08-23T00:15:09.486Z,71.2
2018-08-23T00:16:19.552Z,71.2
2018-08-23T00:17:29.618Z,71.2
2018-08-23T00:18:39.711Z,71.11
2018-08-23T00:19:49.795Z,71.2
2018-08-23T00:20:59.876Z,70.92
2018-08-23T00:22:09.948Z,71.2
2018-08-23T00:23:20.022Z,70.92
2018-08-23T00:24:30.105Z,70.92
2018-08-23T00:25:39.922Z,71.3
2018-08-23T00:26:50.026Z,71.2
2018-08-23T00:28:00.770Z,71.11
2018-08-23T00:29:10.897Z,71.2
2018-08-23T00:30:20.500Z,71.01
2018-08-23T00:31:30.340Z,71.11
2018-08-23T00:32:40.432Z,71.2
2018-08-23T00:33:50.518Z,71.11
2018-08-23T00:35:00.591Z,71.11
2018-08-23T00:36:10.422Z,71.2
2018-08-23T00:37:20.521Z,70.92
2018-08-23T00:38:30.614Z,70.92
2018-08-23T00:39:40.763Z,71.11
2018-08-23T00:40:50.581Z,71.11
2018-08-23T00:42:00.651Z,71.11
2018-08-23T00:43:10.776Z,71.08
2018-08-23T00:44:20.853Z,70.92
2018-08-23T00:45:30.936Z,70.98
2018-08-23T00:46:40.998Z,71.08
2018-08-23T00:47:50.820Z,71.2
2018-08-23T00:49:00.644Z,71.11
2018-08-23T00:50:10.213Z,71.17
2018-08-23T00:51:20.324Z,70.92
2018-08-23T00:52:30.162Z,71.08
2018-08-23T00:53:40.237Z,71.17
2018-08-23T00:54:50.332Z,71.2
2018-08-23T00:56:00.163Z,70.98
2018-08-23T00:57:10.144Z,71.17
2018-08-23T00:58:20.008Z,71.08
2018-08-23T00:59:30.099Z,71.3
2018-08-23T01:00:40.179Z,70.92
2018-08-23T01:01:50.250Z,71.08
2018-08-23T01:03:00.113Z,71.08
2018-08-23T01:04:10.210Z,71.17
2018-08-23T01:05:20.303Z,70.98
2018-08-23T01:06:30.403Z,71.36
2018-08-23T01:07:40.485Z,71.36
2018-08-23T01:08:50.314Z,71.08
2018-08-23T01:10:00.145Z,71.36
2018-08-23T01:11:09.950Z,71.26
2018-08-23T01:12:20.026Z,71.36
2018-08-23T01:13:29.866Z,71.17
2018-08-23T01:14:39.739Z,71.36
2018-08-23T01:15:49.810Z,71.46
2018-08-23T01:16:59.955Z,71.36
2018-08-23T01:18:09.987Z,71.46
2018-08-23T01:19:20.126Z,71.46
2018-08-23T01:20:30.261Z,71.46
2018-08-23T01:21:40.106Z,71.42
2018-08-23T01:22:49.930Z,71.42
2018-08-23T01:23:59.506Z,71.42
2018-08-23T01:25:09.643Z,71.52
2018-08-23T01:26:19.768Z,71.42
2018-08-23T01:27:29.885Z,71.33
2018-08-23T01:28:39.966Z,71.04
2018-08-23T01:29:50.039Z,71.04
2018-08-23T01:31:00.126Z,71.33
2018-08-23T01:32:09.953Z,71.42
2018-08-23T01:33:20.052Z,71.42
2018-08-23T01:34:30.136Z,71.42
2018-08-23T01:35:39.954Z,71.42
2018-08-23T01:36:50.052Z,71.42
2018-08-23T01:38:00.166Z,71.42
2018-08-23T01:39:10.244Z,71.14
2018-08-23T01:40:20.339Z,71.33
2018-08-23T01:41:30.401Z,71
2018-08-23T01:42:40.481Z,71.42
2018-08-23T01:43:50.586Z,71.42
2018-08-23T01:45:00.420Z,71.42
2018-08-23T01:46:10.227Z,71.2
2018-08-23T01:47:20.299Z,71.04
2018-08-23T01:48:30.372Z,71.04
2018-08-23T01:49:40.450Z,71.1
2018-08-23T01:50:50.541Z,71.1
2018-08-23T01:52:00.645Z,71
2018-08-23T01:53:10.723Z,70.81
2018-08-23T01:54:20.798Z,70.9
2018-08-23T01:55:30.666Z,71
2018-08-23T01:56:40.751Z,71.3
2018-08-23T01:57:50.303Z,71.1
2018-08-23T01:59:00.122Z,71.3
2018-08-23T02:00:10.223Z,71.39
2018-08-23T02:01:20.304Z,71.39
2018-08-23T02:02:30.379Z,71.39
2018-08-23T02:03:40.443Z,71.48
2018-08-23T02:04:50.553Z,71.3
2018-08-23T02:06:00.400Z,71.48
2018-08-23T02:07:10.594Z,71.39
2018-08-23T02:08:20.694Z,71.39
2018-08-23T02:09:30.777Z,70.9
2018-08-23T02:10:40.853Z,71.1
2018-08-23T02:11:50.957Z,71.1
2018-08-23T02:13:01.077Z,71.1
2018-08-23T02:14:10.889Z,71.1
2018-08-23T02:15:20.983Z,71.1
2018-08-23T02:16:31.058Z,71.2
2018-08-23T02:17:41.137Z,71.2
2018-08-23T02:18:51.215Z,71.2
2018-08-23T02:20:01.288Z,71.3
2018-08-23T02:21:11.098Z,71.2
2018-08-23T02:22:21.185Z,71.2
2018-08-23T02:23:31.315Z,70.9
2018-08-23T02:24:41.151Z,70.9
2018-08-23T02:25:51.227Z,71.06
2018-08-23T02:27:01.320Z,71.06
2018-08-23T02:28:11.143Z,71.16
2018-08-23T02:29:21.213Z,70.97
2018-08-23T02:30:31.404Z,71.26
2018-08-23T02:31:41.239Z,71.06
2018-08-23T02:32:51.326Z,71.06
2018-08-23T02:34:01.133Z,71.06
2018-08-23T02:35:11.212Z,71.36
2018-08-23T02:36:21.289Z,70.97
2018-08-23T02:37:31.378Z,70.97
2018-08-23T02:38:41.470Z,71.06
2018-08-23T02:39:51.569Z,70.97
2018-08-23T02:41:01.656Z,71.03
2018-08-23T02:42:11.778Z,71.16
2018-08-23T02:43:21.614Z,71.16
2018-08-23T02:44:31.545Z,71.06
2018-08-23T02:45:41.166Z,71.06
2018-08-23T02:46:51.250Z,71.03
2018-08-23T02:48:01.335Z,71.06
2018-08-23T02:49:11.422Z,71.03
2018-08-23T02:50:21.495Z,71.36
2018-08-23T02:51:31.304Z,70.94
2018-08-23T02:52:41.371Z,70.97
2018-08-23T02:53:51.436Z,71.06
2018-08-23T02:55:01.238Z,70.84
2018-08-23T02:56:11.311Z,71.03
2018-08-23T02:57:21.384Z,71.32
2018-08-23T02:58:31.201Z,70.94
2018-08-23T02:59:41.280Z,71.32
2018-08-23T03:00:51.356Z,71.42
2018-08-23T03:02:01.463Z,70.84
2018-08-23T03:35:03.559Z,66.58
2018-08-23T03:36:13.650Z,67.26
2018-08-23T03:37:23.725Z,67.45
2018-08-23T03:38:33.832Z,68.22
2018-08-23T03:39:43.911Z,68.6
2018-08-23T03:40:53.982Z,68.99
2018-08-23T03:42:04.070Z,69.38
2018-08-23T03:43:14.134Z,69.47
2018-08-23T03:44:24.205Z,69.85
2018-08-23T03:45:34.028Z,70.28
2018-08-23T03:46:43.903Z,70.56
2018-08-23T03:47:53.985Z,70.18
2018-08-23T03:49:03.796Z,70.47
2018-08-23T03:50:13.934Z,70.6
2018-08-23T03:51:23.756Z,70.41
2018-08-23T03:52:33.740Z,70.79
2018-08-23T03:53:44.166Z,70.6
2018-08-23T03:54:54.227Z,71.08
2018-08-23T03:56:04.072Z,70.92
2018-08-23T03:57:13.638Z,70.92
2018-08-23T03:58:23.773Z,70.73
2018-08-23T03:59:33.867Z,70.83
2018-08-23T04:00:44.185Z,70.83
2018-08-23T04:01:54.262Z,70.86
2018-08-23T04:03:04.324Z,70.86
2018-08-23T04:04:14.514Z,71.25
2018-08-23T04:05:24.581Z,70.86
2018-08-23T04:06:34.400Z,71.25
2018-08-23T04:07:44.491Z,71.15
2018-08-23T04:08:54.588Z,70.57
2018-08-23T04:10:04.666Z,70.8
2018-08-23T04:11:14.747Z,70.51
2018-08-23T04:12:24.807Z,70.61
2018-08-23T04:13:34.620Z,70.51
2018-08-23T04:14:44.695Z,70.7
2018-08-23T04:15:54.831Z,70.7
2018-08-23T04:17:04.661Z,70.7
2018-08-23T04:18:14.775Z,70.51
2018-08-23T04:19:24.861Z,70.42
2018-08-23T04:20:34.952Z,70.26
2018-08-23T04:21:45.030Z,70.45
2018-08-23T04:22:55.383Z,70.45
2018-08-23T04:24:05.772Z,70.36
2018-08-23T04:25:15.344Z,70.06
2018-08-23T04:26:25.433Z,69.97
2018-08-23T04:27:35.527Z,70.29
2018-08-23T04:28:45.603Z,69.9
2018-08-23T04:29:55.672Z,69.9
2018-08-23T04:31:05.767Z,70.2
2018-08-23T04:32:15.576Z,70.23
2018-08-23T04:33:25.434Z,70.23
2018-08-23T04:34:35.259Z,69.74
2018-08-23T04:35:45.348Z,69.65
2018-08-23T04:36:55.153Z,69.1
2018-08-23T04:38:05.222Z,68.27
2018-08-23T04:39:15.345Z,67.85
2018-08-23T04:40:25.402Z,67.79
2018-08-23T04:41:35.478Z,67.44
2018-08-23T04:42:45.297Z,67.08
2018-08-23T04:43:55.367Z,66.69
2018-08-23T04:45:05.435Z,66.27
2018-08-23T04:46:15.504Z,66.27
2018-08-23T04:47:25.576Z,66.6
2018-08-23T04:48:35.651Z,66.5
2018-08-23T04:49:45.736Z,66.53
2018-08-23T04:50:55.816Z,66.63
2018-08-23T04:52:06.147Z,66.66
2018-08-23T04:53:15.967Z,66.6
2018-08-23T04:54:26.034Z,66.14
2018-08-23T04:55:35.850Z,66.14
2018-08-23T04:56:46.027Z,65.88
2018-08-23T04:57:56.089Z,65.59
2018-08-23T04:59:06.216Z,65.72
2018-08-23T05:00:16.299Z,65.66
2018-08-23T05:01:26.394Z,66.05
2018-08-23T05:02:36.208Z,66.24
2018-08-23T05:03:46.288Z,66.05
2018-08-23T05:04:56.146Z,66.17
2018-08-23T05:06:06.231Z,65.78
2018-08-23T05:07:16.048Z,65.72
2018-08-23T05:08:25.873Z,66.31
2018-08-23T05:09:35.692Z,66.79
2018-08-23T05:10:45.255Z,66.31
2018-08-23T05:11:55.330Z,66.44
2018-08-23T05:13:05.421Z,65.95
2018-08-23T05:14:15.493Z,65.69
2018-08-23T05:15:25.580Z,65.69
2018-08-23T05:16:35.133Z,65.63
2018-08-23T05:17:45.222Z,65.82
2018-08-23T05:18:55.313Z,65.72
2018-08-23T05:20:05.518Z,66.6
2018-08-23T05:21:15.597Z,66.31
2018-08-23T05:22:25.685Z,66.02
2018-08-23T05:23:35.807Z,66.89
2018-08-23T05:24:45.641Z,66.14
2018-08-23T05:25:55.774Z,66.93
2018-08-23T05:27:06.115Z,66.7
2018-08-23T05:28:15.942Z,67.68
2018-08-23T05:29:26.047Z,67.93
2018-08-23T05:30:35.910Z,67.64
2018-08-23T05:31:45.998Z,68.03
2018-08-23T05:32:55.563Z,68.03
2018-08-23T05:34:05.767Z,67.74
2018-08-23T05:35:15.877Z,67.8
2018-08-23T05:36:25.939Z,68.1
2018-08-23T05:37:36.040Z,68.49
2018-08-23T05:38:46.098Z,68.49
2018-08-23T05:39:55.920Z,68.55
2018-08-23T05:41:05.746Z,68.19
2018-08-23T05:42:15.843Z,67.71
2018-08-23T05:43:25.669Z,67.41
2018-08-23T05:44:35.747Z,67.93
2018-08-23T05:45:45.826Z,68.19
2018-08-23T05:46:55.908Z,69.13
2018-08-23T05:48:06.007Z,69.88
2018-08-23T05:49:16.090Z,69.17
2018-08-23T05:50:26.168Z,69.75
2018-08-23T05:51:36.243Z,69.2
2018-08-23T05:52:46.310Z,69.36
2018-08-23T05:53:56.140Z,69.56
2018-08-23T05:55:06.273Z,69.81
2018-08-23T05:56:16.340Z,70.4
2018-08-23T05:57:26.416Z,70.26
2018-08-23T05:58:36.519Z,70.42
2018-08-23T05:59:46.591Z,70.62
2018-08-23T06:00:56.438Z,70.81
2018-08-23T06:02:06.248Z,70.68
2018-08-23T06:03:16.338Z,70.49
2018-08-23T06:04:26.426Z,70.29
2018-08-23T06:05:36.234Z,69.81
2018-08-23T06:06:46.319Z,70.75
2018-08-23T06:07:55.875Z,70.16
2018-08-23T06:09:05.947Z,69.71
2018-08-23T06:10:15.760Z,69.42
2018-08-23T06:11:25.576Z,68.96
2018-08-23T06:12:35.199Z,69.06
2018-08-23T06:13:45.272Z,69.06
2018-08-23T06:14:55.077Z,69.65
2018-08-23T06:16:05.155Z,69.16
2018-08-23T06:17:15.004Z,69.55
2018-08-23T06:18:25.123Z,69.55
2018-08-23T06:19:35.196Z,69.45
2018-08-23T06:20:45.024Z,69.26
2018-08-23T06:21:55.096Z,69
2018-08-23T06:23:05.169Z,69.1
2018-08-23T06:24:15.059Z,69
2018-08-23T06:25:24.625Z,68.8
2018-08-23T06:26:33.944Z,68.71
2018-08-23T06:27:44.009Z,68.8
2018-08-23T06:28:53.819Z,69.03
2018-08-23T06:30:03.900Z,69.03
2018-08-23T06:31:13.208Z,69.03
2018-08-23T06:32:23.289Z,69.03
2018-08-23T06:33:33.418Z,69.13
2018-08-23T06:34:43.762Z,68.84
2018-08-23T06:35:53.604Z,68.93
2018-08-23T06:37:03.159Z,68.93
2018-08-23T06:38:13.000Z,68.84
2018-08-23T06:39:22.542Z,68.64
2018-08-23T06:40:32.099Z,68.87
2018-08-23T06:41:41.901Z,68.87
2018-08-23T06:42:51.188Z,68.87
2018-08-23T06:44:01.258Z,68.87
2018-08-23T06:45:10.801Z,69.07
2018-08-23T06:46:20.378Z,68.87
2018-08-23T06:47:29.931Z,68.97
2018-08-23T06:48:39.744Z,68.77
2018-08-23T06:49:49.661Z,68.77
2018-08-23T06:50:58.944Z,68.84
2018-08-23T06:52:09.051Z,68.74
2018-08-23T06:53:19.317Z,69.03
2018-08-23T06:54:29.126Z,68.84
2018-08-23T06:55:38.684Z,68.84
2018-08-23T06:56:48.779Z,68.97
2018-08-23T06:57:58.086Z,69.07
2018-08-23T06:59:07.902Z,69.07
2018-08-23T07:00:18.005Z,68.48
2018-08-23T07:01:27.907Z,69.17
2018-08-23T07:02:37.582Z,68.8
2018-08-23T07:03:47.481Z,68.42
2018-08-23T07:04:57.569Z,68.42
2018-08-23T07:06:07.414Z,68.23
2018-08-23T07:07:17.242Z,68.23
2018-08-23T07:08:27.100Z,68.23
2018-08-23T07:09:36.752Z,68.84
2018-08-23T07:10:46.292Z,68.65
2018-08-23T07:11:55.880Z,68.26
2018-08-23T07:13:05.701Z,68.29
2018-08-23T07:14:15.515Z,68.49
2018-08-23T07:15:25.373Z,68.39
2018-08-23T07:16:35.478Z,68.68
2018-08-23T07:17:45.253Z,68.49
2018-08-23T07:18:55.596Z,68.49
2018-08-23T07:20:05.441Z,68.91
2018-08-23T07:21:15.263Z,68.42
2018-08-23T07:22:25.128Z,68.32
2018-08-23T07:23:35.323Z,68.23
2018-08-23T07:24:45.157Z,68.32
2018-08-23T07:25:54.991Z,68.42
2018-08-23T07:27:05.147Z,68.46
2018-08-23T07:28:14.743Z,68.36
2018-08-23T07:29:24.557Z,68.46
2018-08-23T07:30:34.395Z,68.46
2018-08-23T07:31:44.508Z,68.36
2018-08-23T07:32:54.325Z,68.55
2018-08-23T07:34:04.576Z,68.46
2018-08-23T07:35:14.384Z,68.36
2018-08-23T07:36:24.514Z,68.26
2018-08-23T07:37:34.650Z,68.36
2018-08-23T07:38:44.736Z,68.36
2018-08-23T07:39:54.828Z,68.59
2018-08-23T07:41:05.052Z,68.65
2018-08-23T07:42:15.140Z,68.59
2018-08-23T07:43:25.335Z,68.78
2018-08-23T07:44:35.533Z,68.49
2018-08-23T07:45:45.632Z,68.49
2018-08-23T07:46:55.714Z,68.68
2018-08-23T07:48:05.830Z,68.59
2018-08-23T07:49:15.695Z,68.19
2018-08-23T07:50:25.874Z,69.27
2018-08-23T07:51:35.988Z,68.29
2018-08-23T07:52:46.235Z,68.39
2018-08-23T07:53:56.949Z,68.49
2018-08-23T07:55:07.042Z,68.98
2018-08-23T07:56:16.863Z,69.27
2018-08-23T07:57:26.429Z,68.49
2018-08-23T07:58:36.506Z,68.59
2018-08-23T07:59:46.591Z,68.82
2018-08-23T08:00:56.146Z,68.62
2018-08-23T08:02:06.231Z,68.42
2018-08-23T08:03:16.049Z,68.32
2018-08-23T08:04:26.153Z,68.55
2018-08-23T08:05:36.226Z,68.55
2018-08-23T08:06:46.313Z,68.85
2018-08-23T08:07:56.406Z,68.29
2018-08-23T08:09:06.229Z,68.78
2018-08-23T08:10:16.312Z,68.39
2018-08-23T08:11:26.396Z,68.59
2018-08-23T08:12:36.535Z,68.49
2018-08-23T08:13:46.383Z,68.49
2018-08-23T08:14:56.777Z,68.59
2018-08-23T08:16:07.185Z,68.49
2018-08-23T08:17:17.278Z,68.78
2018-08-23T08:18:27.389Z,68.78
2018-08-23T08:19:37.216Z,68.98
2018-08-23T08:20:47.480Z,68.49
2018-08-23T08:21:57.540Z,68.49
2018-08-23T08:23:07.383Z,68.72
2018-08-23T08:24:17.475Z,68.52
2018-08-23T08:25:27.571Z,68.72
2018-08-23T08:26:37.647Z,68.43
2018-08-23T08:27:47.809Z,68.82
2018-08-23T08:28:57.633Z,68.52
2018-08-23T08:30:07.729Z,68.91
2018-08-23T08:31:17.820Z,69.01
2018-08-23T08:32:27.927Z,68.95
2018-08-23T08:33:37.764Z,68.85
2018-08-23T08:34:47.846Z,68.46
2018-08-23T08:35:57.964Z,68.85
2018-08-23T08:37:08.078Z,68.95
2018-08-23T08:38:18.163Z,69.05
2018-08-23T08:39:28.297Z,68.85
2018-08-23T08:40:38.409Z,68.59
2018-08-23T08:41:48.554Z,68.88
2018-08-23T08:42:58.710Z,68.88
2018-08-23T08:44:08.822Z,68.59
2018-08-23T08:45:18.987Z,68.88
2018-08-23T08:46:29.082Z,68.69
2018-08-23T08:47:38.891Z,68.98
2018-08-23T08:48:48.708Z,69.08
2018-08-23T08:49:58.782Z,68.52
2018-08-23T08:51:08.408Z,68.62
2018-08-23T08:52:18.504Z,69.02
2018-08-23T08:53:28.607Z,68.91
2018-08-23T08:54:38.693Z,68.72
2018-08-23T08:55:48.504Z,68.62
2018-08-23T08:56:59.002Z,68.72
2018-08-23T08:58:09.317Z,68.52
2018-08-23T08:59:19.230Z,68.76
2018-08-23T09:00:29.317Z,69.02
2018-08-23T09:01:39.444Z,68.85
2018-08-23T09:02:49.649Z,68.66
2018-08-23T09:03:59.211Z,68.66
2018-08-23T09:05:09.048Z,69.05
2018-08-23T09:06:18.885Z,68.59
2018-08-23T09:07:28.978Z,68.79
2018-08-23T09:08:39.126Z,68.79
2018-08-23T09:09:49.006Z,68.88
2018-08-23T09:10:59.634Z,69.18
2018-08-23T09:12:09.771Z,68.88
2018-08-23T09:13:19.852Z,69.12
2018-08-23T09:14:29.996Z,68.82
2018-08-23T09:15:39.815Z,69.02
2018-08-23T09:16:49.906Z,69.12
2018-08-23T09:18:00.013Z,69.21
2018-08-23T09:19:10.119Z,68.43
2018-08-23T09:20:20.247Z,68.92
2018-08-23T09:21:30.590Z,68.82
2018-08-23T09:22:40.934Z,68.76
2018-08-23T09:23:50.751Z,68.95
2018-08-23T09:25:00.843Z,68.76
2018-08-23T09:26:10.753Z,68.85
2018-08-23T09:27:21.107Z,68.76
2018-08-23T09:28:31.208Z,68.85
2018-08-23T09:29:41.278Z,68.66
2018-08-23T09:30:51.385Z,68.79
2018-08-23T09:32:01.571Z,68.66
2018-08-23T09:33:11.576Z,68.89
2018-08-23T09:34:21.658Z,69.18
2018-08-23T09:35:31.815Z,68.79
2018-08-23T09:36:41.965Z,68.99
2018-08-23T09:37:52.137Z,68.79
2018-08-23T09:39:02.725Z,68.99
2018-08-23T09:40:12.811Z,68.79
2018-08-23T09:41:22.680Z,69.18
2018-08-23T09:42:32.779Z,68.79
2018-08-23T09:43:42.866Z,69.18
2018-08-23T09:44:52.962Z,69.09
2018-08-23T09:46:03.183Z,68.82
2018-08-23T09:47:13.345Z,68.73
2018-08-23T09:48:23.437Z,69.32
2018-08-23T09:49:33.534Z,69.12
2018-08-23T09:50:43.748Z,69.12
2018-08-23T09:51:54.228Z,68.96
2018-08-23T09:53:04.330Z,69.35
2018-08-23T09:54:14.155Z,69.15
2018-08-23T09:55:24.336Z,69.29
2018-08-23T09:56:34.542Z,68.99
2018-08-23T09:57:45.136Z,68.46
2018-08-23T09:58:55.428Z,68.96
2018-08-23T10:00:05.489Z,68.76
2018-08-23T10:01:15.657Z,69.38
2018-08-23T10:02:25.757Z,68.79
2018-08-23T10:03:35.578Z,69.09
2018-08-23T10:04:45.843Z,68.99
2018-08-23T10:05:56.232Z,68.5
2018-08-23T10:07:06.171Z,68.79
2018-08-23T10:08:16.287Z,68.79
2018-08-23T10:09:26.405Z,69.18
2018-08-23T10:10:36.536Z,69.09
2018-08-23T10:11:46.678Z,68.99
2018-08-23T10:12:57.339Z,69.29
2018-08-23T10:14:07.432Z,68.99
2018-08-23T10:15:17.536Z,69.18
2018-08-23T10:16:27.636Z,69.02
2018-08-23T10:17:37.731Z,68.92
2018-08-23T10:18:47.942Z,69.22
2018-08-23T10:19:58.043Z,68.82
2018-08-23T10:21:08.141Z,69.02
2018-08-23T10:22:18.236Z,69.12
2018-08-23T10:23:28.090Z,69.55
2018-08-23T10:24:37.664Z,69.55
2018-08-23T10:25:47.754Z,68.96
2018-08-23T10:26:57.910Z,69.06
2018-08-23T10:28:08.019Z,69.06
2018-08-23T10:29:18.134Z,68.86
2018-08-23T10:30:28.280Z,69.15
2018-08-23T10:31:38.388Z,69.35
2018-08-23T10:32:48.217Z,69.29
2018-08-23T10:33:58.044Z,69.58
2018-08-23T10:35:07.854Z,69.09
2018-08-23T10:36:17.931Z,68.89
2018-08-23T10:37:28.038Z,69.12
2018-08-23T10:38:38.134Z,69.32
2018-08-23T10:39:47.981Z,69.22
2018-08-23T10:40:58.089Z,69.22
2018-08-23T10:42:07.700Z,69.32
2018-08-23T10:43:17.799Z,69.22
2018-08-23T10:44:27.628Z,69.22
2018-08-23T10:45:38.021Z,69.22
2018-08-23T10:46:48.111Z,69.26
2018-08-23T10:47:58.253Z,68.57
2018-08-23T10:49:08.092Z,69.26
2018-08-23T10:50:17.965Z,69.26
2018-08-23T10:51:28.068Z,69.26
2018-08-23T10:52:38.176Z,69.16
2018-08-23T10:53:48.318Z,69.26
2018-08-23T10:54:58.420Z,69.26
2018-08-23T10:56:08.505Z,69.26
2018-08-23T10:57:18.093Z,69.26
2018-08-23T10:58:27.930Z,68.57
2018-08-23T10:59:38.025Z,68.76
2018-08-23T11:00:48.142Z,68.86
2018-08-23T11:01:58.272Z,68.89
2018-08-23T11:03:08.378Z,69.09
2018-08-23T11:04:18.492Z,69.09
2018-08-23T11:05:28.591Z,68.89
2018-08-23T11:06:38.684Z,68.99
2018-08-23T11:07:48.782Z,69.09
2018-08-23T11:08:58.880Z,68.89
2018-08-23T11:10:09.011Z,68.79
2018-08-23T11:11:19.110Z,68.89
2018-08-23T11:12:29.220Z,68.89
2018-08-23T11:13:39.040Z,68.7
2018-08-23T11:14:49.129Z,68.5
2018-08-23T11:15:59.233Z,68.53
2018-08-23T11:17:09.493Z,68.53
2018-08-23T11:18:19.645Z,68.53
2018-08-23T11:19:29.468Z,68.83
2018-08-23T11:20:39.287Z,68.43
2018-08-23T11:21:49.378Z,68.33
2018-08-23T11:22:59.656Z,68.73
2018-08-23T11:24:09.607Z,68.73
2018-08-23T11:25:19.438Z,68.93
2018-08-23T11:26:29.265Z,68.73
2018-08-23T11:27:39.363Z,68.83
2018-08-23T11:28:49.203Z,68.53
2018-08-23T11:29:59.499Z,68.24
2018-08-23T11:31:09.869Z,68.96
2018-08-23T11:32:19.686Z,68.37
2018-08-23T11:33:29.778Z,68.4
2018-08-23T11:34:39.967Z,68.4
2018-08-23T11:35:50.059Z,68.79
2018-08-23T11:37:00.142Z,68.99
2018-08-23T11:38:10.273Z,68.4
2018-08-23T11:39:20.113Z,68.86
2018-08-23T11:40:30.203Z,68.86
2018-08-23T11:41:40.296Z,68.46
2018-08-23T11:42:50.641Z,68.17
2018-08-23T11:44:00.968Z,68.2
2018-08-23T11:45:10.790Z,68.9
2018-08-23T11:46:20.917Z,68.5
2018-08-23T11:47:31.028Z,68.4
2018-08-23T11:48:41.170Z,68.9
2018-08-23T11:49:51.476Z,68.6
2018-08-23T11:51:01.563Z,68.4
2018-08-23T11:52:11.703Z,68.4
2018-08-23T11:53:21.950Z,68.5
2018-08-23T11:54:33.219Z,68.5
2018-08-23T11:55:43.315Z,68.79
2018-08-23T11:56:53.165Z,68.5
2018-08-23T11:58:03.506Z,68.4
2018-08-23T11:59:14.301Z,68.63
2018-08-23T12:00:24.372Z,68.43
2018-08-23T12:01:34.458Z,68.53
2018-08-23T12:02:44.599Z,68.73
2018-08-23T12:03:54.712Z,68.43
2018-08-23T12:05:04.531Z,69.02
2018-08-23T12:06:14.616Z,68.24
2018-08-23T12:07:24.723Z,68.53
2018-08-23T12:08:34.815Z,67.77
2018-08-23T12:09:44.946Z,68.27
2018-08-23T12:10:55.042Z,68.27
2018-08-23T12:12:04.910Z,68.07
2018-08-23T12:13:15.003Z,68.3
2018-08-23T12:14:25.101Z,68.3
2018-08-23T12:15:35.371Z,68.3
2018-08-23T12:16:45.915Z,68.8
2018-08-23T12:17:56.138Z,68.9
2018-08-23T12:19:06.219Z,68.8
2018-08-23T12:20:16.304Z,68.5
2018-08-23T12:21:26.423Z,68.46
2018-08-23T12:22:36.511Z,69.06
2018-08-23T12:23:46.608Z,68.66
2018-08-23T12:24:56.695Z,68.96
2018-08-23T12:26:06.673Z,68.96
2018-08-23T12:27:16.791Z,68.46
2018-08-23T12:28:26.881Z,68.57
2018-08-23T12:29:36.715Z,68.86
2018-08-23T12:30:46.935Z,68.8
2018-08-23T12:31:57.049Z,68.6
2018-08-23T12:33:07.408Z,68.1
2018-08-23T12:34:17.528Z,68.53
2018-08-23T12:35:27.706Z,68.63
2018-08-23T12:36:37.793Z,68.43
2018-08-23T12:37:48.002Z,67.94
2018-08-23T12:38:58.135Z,68.37
2018-08-23T12:40:08.285Z,68.43
2018-08-23T12:41:18.417Z,68.43
2018-08-23T12:42:28.250Z,68.24
2018-08-23T12:43:38.331Z,68.33
2018-08-23T12:44:48.463Z,68.24
2018-08-23T12:45:58.604Z,68.13
2018-08-23T12:47:08.709Z,67.84
2018-08-23T12:48:18.821Z,68.33
2018-08-23T12:49:28.729Z,67.94
2018-08-23T12:50:38.893Z,68.63
2018-08-23T12:51:48.987Z,68.63
2018-08-23T12:52:59.074Z,68.53
2018-08-23T12:54:09.184Z,68.24
2018-08-23T12:55:19.303Z,67.84
2018-08-23T12:56:29.554Z,68.53
2018-08-23T12:57:39.772Z,68.63
2018-08-23T12:58:49.901Z,68.33
2018-08-23T13:00:00.004Z,68.53
2018-08-23T13:01:10.113Z,68.63
2018-08-23T13:02:20.442Z,68.53
2018-08-23T13:03:30.665Z,68.63
2018-08-23T13:04:40.096Z,68.53
2018-08-23T13:05:50.200Z,68.83
2018-08-23T13:06:59.793Z,69.13
2018-08-23T13:08:09.978Z,68.8
2018-08-23T13:09:19.968Z,68.99
2018-08-23T13:10:30.083Z,68.9
2018-08-23T13:11:40.203Z,68.99
2018-08-23T13:12:50.060Z,68.6
2018-08-23T13:14:00.144Z,68.63
2018-08-23T13:15:09.971Z,68.5
2018-08-23T13:16:20.079Z,68.4
2018-08-23T13:17:30.248Z,68.5
2018-08-23T13:18:40.634Z,68.8
2018-08-23T13:19:50.537Z,68.6
2018-08-23T13:21:00.650Z,68.8
2018-08-23T13:22:10.756Z,68.99
2018-08-23T13:23:20.856Z,68.5
2018-08-23T13:24:30.957Z,68.5
2018-08-23T13:25:41.064Z,68.8
2018-08-23T13:26:51.171Z,68.4
2018-08-23T13:28:00.764Z,68.46
2018-08-23T13:29:10.855Z,68.8
2018-08-23T13:30:20.734Z,68.4
2018-08-23T13:31:31.017Z,68.46
2018-08-23T13:32:40.913Z,69.35
2018-08-23T13:33:51.002Z,68.57
2018-08-23T13:35:01.101Z,68.57
2018-08-23T13:36:11.155Z,68.86
2018-08-23T13:37:21.597Z,68.46
2018-08-23T13:38:31.428Z,68.86
2018-08-23T13:39:41.563Z,68.83
2018-08-23T13:40:51.681Z,68.93
2018-08-23T13:42:02.135Z,68.63
2018-08-23T13:43:12.377Z,68.63
2018-08-23T13:44:22.221Z,68.57
2018-08-23T13:45:32.066Z,68.27
2018-08-23T13:46:41.904Z,68.96
2018-08-23T13:47:51.989Z,68.86
2018-08-23T13:49:02.096Z,69.06
2018-08-23T13:50:11.923Z,68.37
2018-08-23T13:51:22.028Z,68.46
2018-08-23T13:52:32.166Z,68.37
2018-08-23T13:53:42.214Z,68.96
2018-08-23T13:54:52.115Z,68.96
2018-08-23T13:56:01.964Z,68.76
2018-08-23T13:57:12.132Z,68.76
2018-08-23T13:58:22.333Z,68.76
2018-08-23T13:59:32.428Z,69.06
2018-08-23T14:00:41.999Z,69.62
2018-08-23T14:01:51.848Z,68.99
2018-08-23T14:03:01.705Z,68.96
2018-08-23T14:04:11.816Z,69.35
2018-08-23T14:05:21.907Z,69.19
2018-08-23T14:06:32.585Z,69.39
2018-08-23T14:07:42.882Z,69.19
2018-08-23T14:08:53.313Z,68.79
2018-08-23T14:10:03.238Z,68.83
2018-08-23T14:11:13.505Z,68.93
2018-08-23T14:12:23.232Z,68.33
2018-08-23T14:13:33.340Z,69.02
2018-08-23T14:14:43.486Z,68.53
2018-08-23T14:15:53.605Z,69.32
2018-08-23T14:17:03.736Z,69.29
2018-08-23T14:18:13.587Z,69.26
2018-08-23T14:19:23.880Z,69.35
2018-08-23T14:20:34.298Z,69.19
2018-08-23T14:21:44.135Z,69.19
2018-08-23T14:22:54.259Z,69.39
2018-08-23T14:24:04.461Z,69.26
2018-08-23T14:25:14.560Z,69.16
2018-08-23T14:26:24.773Z,69.12
2018-08-23T14:27:34.622Z,69.52
2018-08-23T14:28:44.776Z,69.52
2018-08-23T14:29:54.624Z,69.35
2018-08-23T14:31:04.726Z,69.35
2018-08-23T14:32:14.898Z,69.62
2018-08-23T14:33:24.747Z,69.02
2018-08-23T14:34:34.837Z,69.22
2018-08-23T14:35:44.687Z,69.42
2018-08-23T14:36:54.536Z,69.52
2018-08-23T14:38:04.673Z,69.32
2018-08-23T14:39:14.780Z,69.22
2018-08-23T14:40:25.148Z,69.35
2018-08-23T14:41:35.662Z,69.26
2018-08-23T14:42:45.840Z,69.45
2018-08-23T14:43:55.923Z,69.45
2018-08-23T14:45:05.757Z,69.45
2018-08-23T14:46:15.852Z,69.26
2018-08-23T14:47:25.799Z,69.26
2018-08-23T14:48:35.674Z,69.02
2018-08-23T14:49:45.806Z,69.19
2018-08-23T14:50:55.896Z,69.09
2018-08-23T14:52:05.980Z,69.19
2018-08-23T14:53:16.133Z,68.99
2018-08-23T14:54:26.336Z,69.19
2018-08-23T14:55:36.436Z,68.89
2018-08-23T14:56:46.557Z,69.19
2018-08-23T14:57:56.433Z,69.38
2018-08-23T14:59:06.487Z,69.19
2018-08-23T15:00:17.089Z,69.29
2018-08-23T15:01:27.311Z,69.49
2018-08-23T15:02:37.481Z,69.09
2018-08-23T15:03:47.049Z,69.29
2018-08-23T15:04:57.194Z,69.32
2018-08-23T15:06:07.297Z,69.32
2018-08-23T15:07:17.403Z,69.32
2018-08-23T15:08:27.491Z,69.32
2018-08-23T15:09:37.570Z,69.42
2018-08-23T15:10:47.868Z,69.38
2018-08-23T15:11:57.984Z,69.68
2018-08-23T15:13:07.826Z,69.59
2018-08-23T15:14:18.270Z,69.19
2018-08-23T15:15:28.276Z,68.89
2018-08-23T15:16:38.571Z,69.19
2018-08-23T15:17:48.690Z,68.99
2018-08-23T15:18:58.525Z,68.99
2018-08-23T15:20:08.635Z,69.09
2018-08-23T15:21:18.742Z,69.29
2018-08-23T15:22:28.851Z,69.19
2018-08-23T15:23:39.002Z,69.09
2018-08-23T15:24:49.127Z,69.09
2018-08-23T15:25:59.304Z,69.38
2018-08-23T15:27:10.273Z,69.49
2018-08-23T15:28:20.925Z,69.45
2018-08-23T15:29:31.025Z,69.38
2018-08-23T15:30:41.117Z,69.16
2018-08-23T15:31:50.948Z,68.96
2018-08-23T15:33:01.127Z,68.96
2018-08-23T15:34:11.090Z,69.16
2018-08-23T15:35:21.200Z,69.26
2018-08-23T15:36:31.284Z,69.16
2018-08-23T15:37:41.397Z,69.16
2018-08-23T15:38:51.500Z,68.86